Карточка аэропорта USHH

Внимание!
Информация на этой странице в стадии наполнения.
Если вы не увидели какой-то информации, или заметили неточность - пожалуйста сообщите нам!
Спасибо!
Команда RU-STAFF
Название аэропортаХанты-Мансийск
Название аэропорта (англ.)Khanty-Mansiysk
Превышение141 ft. (43 m.)
Координаты61°1.7039999999999', 69°5.1599999999999'
Высота перехода3000ft
Эшелон переходаQNH>=1013hPa:FL040; QNH>=977hPa:FL050; QNH<=977hPa:FL060
Коды ответчика5150-5177
Зона ОрВДТюмень РПИ (USTV)
Данные METARUSHH 162330Z 13004MPS 9000 -RA BKN005 02/01 Q0998 R06/290050 TEMPO 1500 SNRA BKN003
Проноз погоды (TAF)USHH 161945Z 1621/1721 15007G14MPS 3100 -SNRA BKN005 OVC016 TEMPO 1621/1624 1500 SHSNRA BR BKN003 BKN010CB FM170000 23007G14MPS 2000 SHSNRA BKN004 BKN016CB TEMPO 1700/1706 17006G14MPS 0500 +SHSNRA BKN002 OVC010CB BECMG 1712/1714 6000 -SHRA FEW005 BKN016CB
NOTAMshow/hide NOTAM
AWOS   TABLE

Информация о ВПП

ВПП Длина ВПП (м.) Покрытие Курс ВПП Частота ILS
062800Асфальтобетон58111.9
242800Асфальтобетон238110.1

Диспетчерские позиции

Позывной Наименование органа УВД Частота
USHH_TWRХантым-Вышка118.1
USHH_R_APPХантым-Круг120.4



Спутниковое изображение